Temple Hills, Maryland
Current Conditions -  °F | °C
As of 6:58 PM on Sunday 23 Nov 2014 (Local Time) from KADW Reporting Station
Broken Clouds Broken Clouds  
Wind Chill: 53°   Ceiling: 3100
Heat Index: 53°   Visibility: 10mi
Dew Point: 45°   Wind: 9mph
Humidity: 73%   Direction: 140°SE
Pressure: 30.04"   Gusts: NA
Location:  38.82°N, 76.95°W
Report Text: KADW 232358Z AUTO 14008KT 10SM BKN031 BKN048 BKN130 12/07 A3004 RMK AO2 CIG 031 RWY19L SLP180 T01170070 10148 20116 57017 $
Loading
Personal Weather Stations






























Interactive Weather Map New forecast layout! Learn more

10-Day Weather Forecast

Advertisements
Track Severe Weather on mobile